Burlington, Vermont
Current Conditions -  °F | °C
As of 11:54 AM on Saturday 22 Nov 2014 (Local Time) from KBTV Reporting Station
Few Clouds Few Clouds  
Wind Chill: 19°   Ceiling: Unl
Heat Index: 31°   Visibility: 10mi
Dew Point: 10°   Wind: 20mph
Humidity: 42%   Direction: 180°S
Pressure: 30.12"   Gusts: 29mph
Location:  44.48°N, 73.21°W
Report Text: KBTV 221654Z 18017G25KT 10SM FEW120 M01/M12 A3012 RMK AO2 PK WND 18028/1634 SLP203 T10061122
Loading
Personal Weather Stations






























Interactive Weather Map New forecast layout! Learn more

10-Day Weather Forecast

Advertisements
Track Severe Weather on mobile